sensor_id;sensor_type;location;lat;lon;timestamp;P1;durP1;ratioP1;P2;durP2;ratioP2
12603;SDS011;6367;52.508;13.284;2022-09-09T00:01:43;6.37;;;5.87;;
12603;SDS011;6367;52.508;13.284;2022-09-09T00:04:15;6.20;;;5.70;;
12603;SDS011;6367;52.508;13.284;2022-09-09T00:06:57;7.77;;;7.17;;
12603;SDS011;6367;52.508;13.284;2022-09-09T00:16:04;7.67;;;6.80;;
12603;SDS011;6367;52.508;13.284;2022-09-09T00:21:14;7.37;;;6.67;;
12603;SDS011;6367;52.508;13.284;2022-09-09T00:23:48;7.37;;;6.77;;
12603;SDS011;6367;52.508;13.284;2022-09-09T00:26:20;8.23;;;7.60;;
12603;SDS011;6367;52.508;13.284;2022-09-09T00:28:55;7.60;;;6.90;;
12603;SDS011;6367;52.508;13.284;2022-09-09T00:31:34;7.70;;;7.00;;
12603;SDS011;6367;52.508;13.284;2022-09-09T00:34:12;6.90;;;6.30;;
12603;SDS011;6367;52.508;13.284;2022-09-09T00:36:42;6.90;;;6.40;;
12603;SDS011;6367;52.508;13.284;2022-09-09T00:39:24;8.10;;;7.50;;
12603;SDS011;6367;52.508;13.284;2022-09-09T00:42:02;8.03;;;7.33;;
12603;SDS011;6367;52.508;13.284;2022-09-09T00:44:59;7.87;;;7.27;;
12603;SDS011;6367;52.508;13.284;2022-09-09T00:52:47;8.03;;;7.43;;
12603;SDS011;6367;52.508;13.284;2022-09-09T00:55:41;9.10;;;8.40;;
12603;SDS011;6367;52.508;13.284;2022-09-09T00:58:26;7.90;;;7.20;;
12603;SDS011;6367;52.508;13.284;2022-09-09T01:00:56;9.53;;;8.83;;
12603;SDS011;6367;52.508;13.284;2022-09-09T01:03:34;9.70;;;8.87;;
12603;SDS011;6367;52.508;13.284;2022-09-09T01:06:21;8.03;;;7.37;;
12603;SDS011;6367;52.508;13.284;2022-09-09T01:09:11;8.30;;;7.60;;
12603;SDS011;6367;52.508;13.284;2022-09-09T01:12:25;7.27;;;6.70;;
12603;SDS011;6367;52.508;13.284;2022-09-09T01:17:12;7.87;;;7.33;;
12603;SDS011;6367;52.508;13.284;2022-09-09T01:19:57;8.37;;;7.63;;
12603;SDS011;6367;52.508;13.284;2022-09-09T01:22:40;8.20;;;7.60;;
12603;SDS011;6367;52.508;13.284;2022-09-09T01:28:02;6.90;;;6.30;;
12603;SDS011;6367;52.508;13.284;2022-09-09T01:30:32;7.43;;;6.90;;
12603;SDS011;6367;52.508;13.284;2022-09-09T01:32:59;8.23;;;7.53;;
12603;SDS011;6367;52.508;13.284;2022-09-09T01:38:22;7.60;;;7.00;;
12603;SDS011;6367;52.508;13.284;2022-09-09T01:40:49;7.97;;;7.37;;
12603;SDS011;6367;52.508;13.284;2022-09-09T01:43:17;6.83;;;6.33;;
12603;SDS011;6367;52.508;13.284;2022-09-09T01:45:48;6.70;;;6.20;;
12603;SDS011;6367;52.508;13.284;2022-09-09T01:48:18;7.30;;;6.80;;
12603;SDS011;6367;52.508;13.284;2022-09-09T01:50:46;8.30;;;7.60;;
12603;SDS011;6367;52.508;13.284;2022-09-09T01:53:11;7.80;;;7.20;;
12603;SDS011;6367;52.508;13.284;2022-09-09T01:55:39;9.30;;;8.10;;
12603;SDS011;6367;52.508;13.284;2022-09-09T02:00:55;7.90;;;7.30;;
12603;SDS011;6367;52.508;13.284;2022-09-09T02:03:40;7.60;;;6.90;;
12603;SDS011;6367;52.508;13.284;2022-09-09T02:08:47;8.07;;;7.47;;
12603;SDS011;6367;52.508;13.284;2022-09-09T02:11:18;8.00;;;7.30;;
12603;SDS011;6367;52.508;13.284;2022-09-09T02:13:47;8.30;;;7.53;;
12603;SDS011;6367;52.508;13.284;2022-09-09T02:16:18;7.77;;;7.13;;
12603;SDS011;6367;52.508;13.284;2022-09-09T02:18:53;8.43;;;7.63;;
12603;SDS011;6367;52.508;13.284;2022-09-09T02:21:26;7.63;;;7.03;;
12603;SDS011;6367;52.508;13.284;2022-09-09T02:23:54;8.97;;;8.17;;
12603;SDS011;6367;52.508;13.284;2022-09-09T02:26:23;7.83;;;7.20;;
12603;SDS011;6367;52.508;13.284;2022-09-09T02:28:50;7.73;;;7.13;;
12603;SDS011;6367;52.508;13.284;2022-09-09T02:31:20;7.63;;;6.87;;
12603;SDS011;6367;52.508;13.284;2022-09-09T02:33:51;7.47;;;6.87;;
12603;SDS011;6367;52.508;13.284;2022-09-09T02:36:20;7.90;;;7.30;;
12603;SDS011;6367;52.508;13.284;2022-09-09T02:38:49;8.63;;;7.83;;
12603;SDS011;6367;52.508;13.284;2022-09-09T02:41:22;8.47;;;7.70;;
12603;SDS011;6367;52.508;13.284;2022-09-09T02:43:53;7.93;;;7.33;;
12603;SDS011;6367;52.508;13.284;2022-09-09T02:51:35;7.20;;;6.60;;
12603;SDS011;6367;52.508;13.284;2022-09-09T02:56:56;7.27;;;6.60;;
12603;SDS011;6367;52.508;13.284;2022-09-09T02:59:28;7.87;;;7.17;;
12603;SDS011;6367;52.508;13.284;2022-09-09T03:01:55;7.30;;;6.63;;
12603;SDS011;6367;52.508;13.284;2022-09-09T03:04:21;8.60;;;7.80;;
12603;SDS011;6367;52.508;13.284;2022-09-09T03:06:46;7.87;;;7.27;;
12603;SDS011;6367;52.508;13.284;2022-09-09T03:09:12;7.80;;;7.20;;
12603;SDS011;6367;52.508;13.284;2022-09-09T03:11:38;7.47;;;6.83;;
12603;SDS011;6367;52.508;13.284;2022-09-09T03:14:04;7.70;;;7.10;;
12603;SDS011;6367;52.508;13.284;2022-09-09T03:16:29;8.33;;;6.40;;
12603;SDS011;6367;52.508;13.284;2022-09-09T03:18:55;7.40;;;6.80;;
12603;SDS011;6367;52.508;13.284;2022-09-09T03:21:21;8.00;;;7.33;;
12603;SDS011;6367;52.508;13.284;2022-09-09T03:23:46;8.67;;;7.80;;
12603;SDS011;6367;52.508;13.284;2022-09-09T03:26:12;7.70;;;7.00;;
12603;SDS011;6367;52.508;13.284;2022-09-09T03:28:40;8.17;;;7.40;;
12603;SDS011;6367;52.508;13.284;2022-09-09T03:31:06;8.27;;;7.57;;
12603;SDS011;6367;52.508;13.284;2022-09-09T03:33:35;7.57;;;6.87;;
12603;SDS011;6367;52.508;13.284;2022-09-09T03:36:02;6.87;;;6.27;;
12603;SDS011;6367;52.508;13.284;2022-09-09T03:38:28;7.73;;;7.03;;
12603;SDS011;6367;52.508;13.284;2022-09-09T03:40:54;6.53;;;6.03;;
12603;SDS011;6367;52.508;13.284;2022-09-09T03:43:23;7.23;;;6.53;;
12603;SDS011;6367;52.508;13.284;2022-09-09T03:45:50;8.60;;;8.00;;
12603;SDS011;6367;52.508;13.284;2022-09-09T03:48:16;9.70;;;7.90;;
12603;SDS011;6367;52.508;13.284;2022-09-09T03:50:46;7.80;;;7.10;;
12603;SDS011;6367;52.508;13.284;2022-09-09T03:53:13;6.73;;;6.13;;
12603;SDS011;6367;52.508;13.284;2022-09-09T03:55:43;7.43;;;6.73;;
12603;SDS011;6367;52.508;13.284;2022-09-09T03:58:10;6.93;;;6.23;;
12603;SDS011;6367;52.508;13.284;2022-09-09T04:00:36;7.30;;;6.60;;
12603;SDS011;6367;52.508;13.284;2022-09-09T04:03:05;7.20;;;6.60;;
12603;SDS011;6367;52.508;13.284;2022-09-09T04:05:30;6.90;;;6.37;;
12603;SDS011;6367;52.508;13.284;2022-09-09T04:07:58;7.40;;;6.80;;
12603;SDS011;6367;52.508;13.284;2022-09-09T04:10:24;7.90;;;7.07;;
12603;SDS011;6367;52.508;13.284;2022-09-09T04:12:50;7.00;;;6.43;;
12603;SDS011;6367;52.508;13.284;2022-09-09T04:15:15;6.97;;;6.47;;
12603;SDS011;6367;52.508;13.284;2022-09-09T04:17:41;7.83;;;7.13;;
12603;SDS011;6367;52.508;13.284;2022-09-09T04:20:07;7.70;;;7.10;;
12603;SDS011;6367;52.508;13.284;2022-09-09T04:22:36;6.63;;;6.13;;
12603;SDS011;6367;52.508;13.284;2022-09-09T04:25:05;7.63;;;6.93;;
12603;SDS011;6367;52.508;13.284;2022-09-09T04:27:31;6.53;;;6.03;;
12603;SDS011;6367;52.508;13.284;2022-09-09T04:29:57;6.47;;;6.00;;
12603;SDS011;6367;52.508;13.284;2022-09-09T04:32:23;7.20;;;6.60;;
12603;SDS011;6367;52.508;13.284;2022-09-09T04:34:51;6.90;;;6.20;;
12603;SDS011;6367;52.508;13.284;2022-09-09T04:37:17;7.07;;;6.37;;
12603;SDS011;6367;52.508;13.284;2022-09-09T04:39:42;6.83;;;6.23;;
12603;SDS011;6367;52.508;13.284;2022-09-09T04:42:08;6.93;;;6.20;;
12603;SDS011;6367;52.508;13.284;2022-09-09T04:44:34;6.60;;;5.90;;
12603;SDS011;6367;52.508;13.284;2022-09-09T04:46:59;6.10;;;5.60;;
12603;SDS011;6367;52.508;13.284;2022-09-09T04:49:25;6.90;;;6.03;;
12603;SDS011;6367;52.508;13.284;2022-09-09T04:51:51;8.57;;;7.40;;
12603;SDS011;6367;52.508;13.284;2022-09-09T04:54:17;6.77;;;6.00;;
12603;SDS011;6367;52.508;13.284;2022-09-09T04:56:43;7.13;;;6.50;;
12603;SDS011;6367;52.508;13.284;2022-09-09T04:59:09;6.03;;;5.53;;
12603;SDS011;6367;52.508;13.284;2022-09-09T05:01:35;7.53;;;6.47;;
12603;SDS011;6367;52.508;13.284;2022-09-09T05:04:01;7.47;;;6.57;;
12603;SDS011;6367;52.508;13.284;2022-09-09T05:06:27;6.73;;;6.23;;
12603;SDS011;6367;52.508;13.284;2022-09-09T05:08:56;9.83;;;6.80;;
12603;SDS011;6367;52.508;13.284;2022-09-09T05:11:24;7.03;;;6.33;;
12603;SDS011;6367;52.508;13.284;2022-09-09T05:13:52;6.57;;;6.07;;
12603;SDS011;6367;52.508;13.284;2022-09-09T05:16:18;6.50;;;5.90;;
12603;SDS011;6367;52.508;13.284;2022-09-09T05:18:44;5.93;;;5.30;;
12603;SDS011;6367;52.508;13.284;2022-09-09T05:21:15;6.20;;;5.70;;
12603;SDS011;6367;52.508;13.284;2022-09-09T05:23:44;5.30;;;4.80;;
12603;SDS011;6367;52.508;13.284;2022-09-09T05:26:14;5.70;;;5.20;;
12603;SDS011;6367;52.508;13.284;2022-09-09T05:28:41;5.43;;;5.03;;
12603;SDS011;6367;52.508;13.284;2022-09-09T05:31:08;6.17;;;5.67;;
12603;SDS011;6367;52.508;13.284;2022-09-09T05:33:36;6.43;;;4.60;;
12603;SDS011;6367;52.508;13.284;2022-09-09T05:36:03;5.83;;;5.33;;
12603;SDS011;6367;52.508;13.284;2022-09-09T05:38:31;5.10;;;4.60;;
12603;SDS011;6367;52.508;13.284;2022-09-09T05:41:00;4.77;;;4.47;;
12603;SDS011;6367;52.508;13.284;2022-09-09T05:43:27;5.40;;;4.90;;
12603;SDS011;6367;52.508;13.284;2022-09-09T05:46:10;3.97;;;3.67;;
12603;SDS011;6367;52.508;13.284;2022-09-09T05:48:37;5.03;;;4.60;;
12603;SDS011;6367;52.508;13.284;2022-09-09T05:51:04;4.77;;;4.37;;
12603;SDS011;6367;52.508;13.284;2022-09-09T05:53:34;6.87;;;4.90;;
12603;SDS011;6367;52.508;13.284;2022-09-09T05:56:33;4.93;;;4.47;;
12603;SDS011;6367;52.508;13.284;2022-09-09T05:58:53;5.50;;;5.00;;
12603;SDS011;6367;52.508;13.284;2022-09-09T06:01:24;5.07;;;4.57;;
12603;SDS011;6367;52.508;13.284;2022-09-09T06:03:54;5.00;;;4.30;;
12603;SDS011;6367;52.508;13.284;2022-09-09T06:06:21;4.37;;;4.07;;
12603;SDS011;6367;52.508;13.284;2022-09-09T06:08:50;7.83;;;4.63;;
12603;SDS011;6367;52.508;13.284;2022-09-09T06:11:19;5.13;;;4.00;;
12603;SDS011;6367;52.508;13.284;2022-09-09T06:13:46;4.73;;;4.23;;
12603;SDS011;6367;52.508;13.284;2022-09-09T06:16:13;4.47;;;4.10;;
12603;SDS011;6367;52.508;13.284;2022-09-09T06:18:41;4.73;;;4.33;;
12603;SDS011;6367;52.508;13.284;2022-09-09T06:21:09;4.30;;;3.90;;
12603;SDS011;6367;52.508;13.284;2022-09-09T06:23:43;4.93;;;4.43;;
12603;SDS011;6367;52.508;13.284;2022-09-09T06:26:22;4.90;;;4.53;;
12603;SDS011;6367;52.508;13.284;2022-09-09T06:28:50;4.93;;;4.43;;
12603;SDS011;6367;52.508;13.284;2022-09-09T06:31:18;4.50;;;4.10;;
12603;SDS011;6367;52.508;13.284;2022-09-09T06:33:46;6.63;;;4.43;;
12603;SDS011;6367;52.508;13.284;2022-09-09T06:36:15;3.20;;;3.00;;
12603;SDS011;6367;52.508;13.284;2022-09-09T06:38:42;4.00;;;3.70;;
12603;SDS011;6367;52.508;13.284;2022-09-09T06:41:09;3.50;;;3.20;;
12603;SDS011;6367;52.508;13.284;2022-09-09T06:43:35;4.63;;;4.10;;
12603;SDS011;6367;52.508;13.284;2022-09-09T06:46:03;3.80;;;3.50;;
12603;SDS011;6367;52.508;13.284;2022-09-09T06:48:48;5.53;;;3.57;;
12603;SDS011;6367;52.508;13.284;2022-09-09T06:51:15;3.73;;;3.40;;
12603;SDS011;6367;52.508;13.284;2022-09-09T06:53:50;4.13;;;3.73;;
12603;SDS011;6367;52.508;13.284;2022-09-09T06:56:21;3.67;;;2.87;;
12603;SDS011;6367;52.508;13.284;2022-09-09T06:58:52;4.47;;;3.20;;
12603;SDS011;6367;52.508;13.284;2022-09-09T07:01:23;5.93;;;3.40;;
12603;SDS011;6367;52.508;13.284;2022-09-09T07:03:52;3.13;;;2.90;;
12603;SDS011;6367;52.508;13.284;2022-09-09T07:06:23;3.30;;;2.80;;
12603;SDS011;6367;52.508;13.284;2022-09-09T07:08:54;5.70;;;2.90;;
12603;SDS011;6367;52.508;13.284;2022-09-09T07:11:21;4.97;;;2.83;;
12603;SDS011;6367;52.508;13.284;2022-09-09T07:13:48;3.10;;;2.80;;
12603;SDS011;6367;52.508;13.284;2022-09-09T07:16:18;5.17;;;2.70;;
12603;SDS011;6367;52.508;13.284;2022-09-09T07:18:45;3.17;;;2.60;;
12603;SDS011;6367;52.508;13.284;2022-09-09T07:21:12;4.80;;;2.40;;
12603;SDS011;6367;52.508;13.284;2022-09-09T07:23:39;3.00;;;2.30;;
12603;SDS011;6367;52.508;13.284;2022-09-09T07:26:10;4.37;;;2.67;;
12603;SDS011;6367;52.508;13.284;2022-09-09T07:28:37;4.10;;;2.43;;
12603;SDS011;6367;52.508;13.284;2022-09-09T07:31:03;2.80;;;2.10;;
12603;SDS011;6367;52.508;13.284;2022-09-09T07:33:30;2.50;;;2.30;;
12603;SDS011;6367;52.508;13.284;2022-09-09T07:36:02;2.63;;;2.43;;
12603;SDS011;6367;52.508;13.284;2022-09-09T07:38:29;3.77;;;2.60;;
12603;SDS011;6367;52.508;13.284;2022-09-09T07:41:02;3.30;;;2.77;;
12603;SDS011;6367;52.508;13.284;2022-09-09T07:43:29;2.80;;;2.17;;
12603;SDS011;6367;52.508;13.284;2022-09-09T07:45:58;4.87;;;2.97;;
12603;SDS011;6367;52.508;13.284;2022-09-09T07:48:23;2.70;;;2.10;;
12603;SDS011;6367;52.508;13.284;2022-09-09T07:50:49;1.80;;;1.70;;
12603;SDS011;6367;52.508;13.284;2022-09-09T07:53:16;2.33;;;2.10;;
12603;SDS011;6367;52.508;13.284;2022-09-09T07:55:41;2.70;;;2.00;;
12603;SDS011;6367;52.508;13.284;2022-09-09T07:58:07;1.93;;;1.70;;
12603;SDS011;6367;52.508;13.284;2022-09-09T08:00:33;2.10;;;1.90;;
12603;SDS011;6367;52.508;13.284;2022-09-09T08:02:58;3.43;;;2.33;;
12603;SDS011;6367;52.508;13.284;2022-09-09T08:05:26;3.70;;;2.23;;
12603;SDS011;6367;52.508;13.284;2022-09-09T08:07:53;2.33;;;2.03;;
12603;SDS011;6367;52.508;13.284;2022-09-09T08:10:18;2.50;;;1.60;;
12603;SDS011;6367;52.508;13.284;2022-09-09T08:12:44;2.80;;;2.27;;
12603;SDS011;6367;52.508;13.284;2022-09-09T08:15:10;2.13;;;1.80;;
12603;SDS011;6367;52.508;13.284;2022-09-09T08:17:35;4.83;;;2.10;;
12603;SDS011;6367;52.508;13.284;2022-09-09T08:20:02;1.90;;;1.70;;
12603;SDS011;6367;52.508;13.284;2022-09-09T08:22:30;5.07;;;1.63;;
12603;SDS011;6367;52.508;13.284;2022-09-09T08:24:56;2.10;;;1.60;;
12603;SDS011;6367;52.508;13.284;2022-09-09T08:27:22;2.30;;;1.67;;
12603;SDS011;6367;52.508;13.284;2022-09-09T08:29:48;2.10;;;1.87;;
12603;SDS011;6367;52.508;13.284;2022-09-09T08:32:13;3.73;;;2.00;;
12603;SDS011;6367;52.508;13.284;2022-09-09T08:34:39;3.60;;;1.37;;
12603;SDS011;6367;52.508;13.284;2022-09-09T08:37:05;5.37;;;1.80;;
12603;SDS011;6367;52.508;13.284;2022-09-09T08:39:30;5.10;;;2.53;;
12603;SDS011;6367;52.508;13.284;2022-09-09T08:42:09;4.07;;;2.20;;
12603;SDS011;6367;52.508;13.284;2022-09-09T08:44:54;5.30;;;1.83;;
12603;SDS011;6367;52.508;13.284;2022-09-09T08:50:02;2.20;;;1.80;;
12603;SDS011;6367;52.508;13.284;2022-09-09T08:53:03;1.80;;;1.67;;
12603;SDS011;6367;52.508;13.284;2022-09-09T08:58:11;1.80;;;1.63;;
12603;SDS011;6367;52.508;13.284;2022-09-09T09:03:45;3.77;;;1.90;;
12603;SDS011;6367;52.508;13.284;2022-09-09T09:11:53;2.77;;;1.97;;
12603;SDS011;6367;52.508;13.284;2022-09-09T09:14:21;6.40;;;2.37;;
12603;SDS011;6367;52.508;13.284;2022-09-09T09:17:02;2.63;;;1.67;;
12603;SDS011;6367;52.508;13.284;2022-09-09T09:19:32;2.40;;;1.97;;
12603;SDS011;6367;52.508;13.284;2022-09-09T09:22:16;2.47;;;2.00;;
12603;SDS011;6367;52.508;13.284;2022-09-09T09:28:36;4.57;;;1.77;;
12603;SDS011;6367;52.508;13.284;2022-09-09T09:30:42;3.50;;;1.70;;
12603;SDS011;6367;52.508;13.284;2022-09-09T09:33:18;3.50;;;1.80;;
12603;SDS011;6367;52.508;13.284;2022-09-09T09:35:54;1.90;;;1.57;;
12603;SDS011;6367;52.508;13.284;2022-09-09T09:38:24;2.43;;;1.70;;
12603;SDS011;6367;52.508;13.284;2022-09-09T09:40:52;2.20;;;1.80;;
12603;SDS011;6367;52.508;13.284;2022-09-09T09:43:26;3.60;;;1.90;;
12603;SDS011;6367;52.508;13.284;2022-09-09T09:45:53;1.73;;;1.60;;
12603;SDS011;6367;52.508;13.284;2022-09-09T09:48:20;1.83;;;1.30;;
12603;SDS011;6367;52.508;13.284;2022-09-09T09:50:53;5.10;;;1.80;;
12603;SDS011;6367;52.508;13.284;2022-09-09T09:53:27;1.67;;;1.50;;
12603;SDS011;6367;52.508;13.284;2022-09-09T09:55:56;2.33;;;1.70;;
12603;SDS011;6367;52.508;13.284;2022-09-09T09:58:49;3.43;;;1.53;;
12603;SDS011;6367;52.508;13.284;2022-09-09T10:01:23;3.30;;;1.70;;
12603;SDS011;6367;52.508;13.284;2022-09-09T10:04:00;1.93;;;1.73;;
12603;SDS011;6367;52.508;13.284;2022-09-09T10:06:35;4.50;;;1.50;;
12603;SDS011;6367;52.508;13.284;2022-09-09T10:09:03;2.57;;;1.30;;
12603;SDS011;6367;52.508;13.284;2022-09-09T10:11:44;2.33;;;1.40;;
12603;SDS011;6367;52.508;13.284;2022-09-09T10:14:15;1.53;;;1.33;;
12603;SDS011;6367;52.508;13.284;2022-09-09T10:22:44;2.17;;;1.70;;
12603;SDS011;6367;52.508;13.284;2022-09-09T10:25:25;2.70;;;1.30;;
12603;SDS011;6367;52.508;13.284;2022-09-09T10:33:37;2.57;;;1.60;;
12603;SDS011;6367;52.508;13.284;2022-09-09T10:36:25;2.10;;;1.80;;
12603;SDS011;6367;52.508;13.284;2022-09-09T10:39:04;2.10;;;1.67;;
12603;SDS011;6367;52.508;13.284;2022-09-09T10:44:26;1.63;;;1.40;;
12603;SDS011;6367;52.508;13.284;2022-09-09T10:50:05;2.67;;;1.70;;
12603;SDS011;6367;52.508;13.284;2022-09-09T10:52:57;3.17;;;1.60;;
12603;SDS011;6367;52.508;13.284;2022-09-09T10:55:40;1.40;;;1.30;;
12603;SDS011;6367;52.508;13.284;2022-09-09T10:58:10;1.50;;;1.37;;
12603;SDS011;6367;52.508;13.284;2022-09-09T11:00:42;3.77;;;1.70;;
12603;SDS011;6367;52.508;13.284;2022-09-09T11:03:14;5.10;;;2.27;;
12603;SDS011;6367;52.508;13.284;2022-09-09T11:05:51;1.80;;;1.23;;
12603;SDS011;6367;52.508;13.284;2022-09-09T11:08:28;2.07;;;1.40;;
12603;SDS011;6367;52.508;13.284;2022-09-09T11:11:13;1.57;;;1.20;;
12603;SDS011;6367;52.508;13.284;2022-09-09T11:16:22;2.30;;;1.57;;
12603;SDS011;6367;52.508;13.284;2022-09-09T11:21:51;1.37;;;1.20;;
12603;SDS011;6367;52.508;13.284;2022-09-09T11:24:21;2.30;;;1.40;;
12603;SDS011;6367;52.508;13.284;2022-09-09T11:26:54;1.97;;;1.40;;
12603;SDS011;6367;52.508;13.284;2022-09-09T11:32:10;1.40;;;1.30;;
12603;SDS011;6367;52.508;13.284;2022-09-09T11:37:43;1.63;;;1.03;;
12603;SDS011;6367;52.508;13.284;2022-09-09T11:40:22;2.03;;;1.47;;
12603;SDS011;6367;52.508;13.284;2022-09-09T11:43:00;2.70;;;1.27;;
12603;SDS011;6367;52.508;13.284;2022-09-09T11:45:34;1.73;;;1.20;;
12603;SDS011;6367;52.508;13.284;2022-09-09T11:48:01;2.73;;;1.10;;
12603;SDS011;6367;52.508;13.284;2022-09-09T11:50:32;1.30;;;1.20;;
12603;SDS011;6367;52.508;13.284;2022-09-09T11:53:15;1.20;;;1.10;;
12603;SDS011;6367;52.508;13.284;2022-09-09T11:55:45;2.60;;;1.40;;
12603;SDS011;6367;52.508;13.284;2022-09-09T12:00:41;2.37;;;1.20;;
12603;SDS011;6367;52.508;13.284;2022-09-09T12:05:59;1.60;;;1.00;;
12603;SDS011;6367;52.508;13.284;2022-09-09T12:08:34;1.93;;;1.30;;
12603;SDS011;6367;52.508;13.284;2022-09-09T12:11:02;2.00;;;1.30;;
12603;SDS011;6367;52.508;13.284;2022-09-09T12:13:30;1.60;;;1.20;;
12603;SDS011;6367;52.508;13.284;2022-09-09T12:15:57;2.60;;;1.40;;
12603;SDS011;6367;52.508;13.284;2022-09-09T12:18:36;1.27;;;1.00;;
12603;SDS011;6367;52.508;13.284;2022-09-09T12:21:21;1.70;;;1.17;;
12603;SDS011;6367;52.508;13.284;2022-09-09T12:24:02;1.40;;;1.00;;
12603;SDS011;6367;52.508;13.284;2022-09-09T12:26:39;2.13;;;1.50;;
12603;SDS011;6367;52.508;13.284;2022-09-09T12:29:20;1.57;;;1.33;;
12603;SDS011;6367;52.508;13.284;2022-09-09T12:31:56;4.53;;;1.57;;
12603;SDS011;6367;52.508;13.284;2022-09-09T12:34:32;3.30;;;1.60;;
12603;SDS011;6367;52.508;13.284;2022-09-09T12:37:15;3.93;;;1.37;;
12603;SDS011;6367;52.508;13.284;2022-09-09T12:40:01;2.50;;;1.63;;
12603;SDS011;6367;52.508;13.284;2022-09-09T12:42:30;2.40;;;1.40;;
12603;SDS011;6367;52.508;13.284;2022-09-09T12:45:02;1.30;;;1.20;;
12603;SDS011;6367;52.508;13.284;2022-09-09T12:47:44;3.37;;;2.13;;
12603;SDS011;6367;52.508;13.284;2022-09-09T12:50:23;3.00;;;2.07;;
12603;SDS011;6367;52.508;13.284;2022-09-09T12:53:02;4.00;;;1.27;;
12603;SDS011;6367;52.508;13.284;2022-09-09T12:55:38;3.87;;;1.40;;
12603;SDS011;6367;52.508;13.284;2022-09-09T12:58:05;2.13;;;1.40;;
12603;SDS011;6367;52.508;13.284;2022-09-09T13:00:31;2.03;;;1.30;;
12603;SDS011;6367;52.508;13.284;2022-09-09T13:03:00;2.03;;;1.33;;
12603;SDS011;6367;52.508;13.284;2022-09-09T13:05:27;1.50;;;1.27;;
12603;SDS011;6367;52.508;13.284;2022-09-09T13:08:00;4.07;;;2.20;;
12603;SDS011;6367;52.508;13.284;2022-09-09T13:10:28;3.50;;;1.90;;
12603;SDS011;6367;52.508;13.284;2022-09-09T13:12:56;3.10;;;1.77;;
12603;SDS011;6367;52.508;13.284;2022-09-09T13:15:23;1.67;;;1.27;;
12603;SDS011;6367;52.508;13.284;2022-09-09T13:17:56;2.13;;;0.97;;
12603;SDS011;6367;52.508;13.284;2022-09-09T13:20:25;1.73;;;1.30;;
12603;SDS011;6367;52.508;13.284;2022-09-09T13:22:53;2.47;;;1.30;;
12603;SDS011;6367;52.508;13.284;2022-09-09T13:25:21;1.90;;;1.23;;
12603;SDS011;6367;52.508;13.284;2022-09-09T13:27:54;3.30;;;1.30;;
12603;SDS011;6367;52.508;13.284;2022-09-09T13:35:31;2.33;;;1.30;;
12603;SDS011;6367;52.508;13.284;2022-09-09T13:37:58;2.03;;;1.30;;
12603;SDS011;6367;52.508;13.284;2022-09-09T13:40:31;2.57;;;1.50;;
12603;SDS011;6367;52.508;13.284;2022-09-09T13:42:57;1.20;;;1.10;;
12603;SDS011;6367;52.508;13.284;2022-09-09T13:45:24;1.40;;;1.07;;
12603;SDS011;6367;52.508;13.284;2022-09-09T13:47:53;1.90;;;1.30;;
12603;SDS011;6367;52.508;13.284;2022-09-09T13:50:27;4.93;;;1.70;;
12603;SDS011;6367;52.508;13.284;2022-09-09T13:52:54;2.20;;;1.50;;
12603;SDS011;6367;52.508;13.284;2022-09-09T13:55:24;3.03;;;1.43;;
12603;SDS011;6367;52.508;13.284;2022-09-09T13:57:58;2.80;;;1.20;;
12603;SDS011;6367;52.508;13.284;2022-09-09T14:00:25;3.00;;;1.20;;
12603;SDS011;6367;52.508;13.284;2022-09-09T14:02:51;3.60;;;1.50;;
12603;SDS011;6367;52.508;13.284;2022-09-09T14:05:17;1.63;;;1.10;;
12603;SDS011;6367;52.508;13.284;2022-09-09T14:07:44;3.73;;;1.30;;
12603;SDS011;6367;52.508;13.284;2022-09-09T14:10:10;2.40;;;1.10;;
12603;SDS011;6367;52.508;13.284;2022-09-09T14:12:37;1.67;;;1.20;;
12603;SDS011;6367;52.508;13.284;2022-09-09T14:15:03;3.70;;;1.40;;
12603;SDS011;6367;52.508;13.284;2022-09-09T14:17:30;2.40;;;1.20;;
12603;SDS011;6367;52.508;13.284;2022-09-09T14:19:57;1.93;;;1.20;;
12603;SDS011;6367;52.508;13.284;2022-09-09T14:22:23;2.33;;;1.10;;
12603;SDS011;6367;52.508;13.284;2022-09-09T14:24:49;2.70;;;1.30;;
12603;SDS011;6367;52.508;13.284;2022-09-09T14:27:16;2.27;;;1.20;;
12603;SDS011;6367;52.508;13.284;2022-09-09T14:29:42;1.53;;;1.00;;
12603;SDS011;6367;52.508;13.284;2022-09-09T14:32:09;2.70;;;1.40;;
12603;SDS011;6367;52.508;13.284;2022-09-09T14:34:34;2.43;;;1.33;;
12603;SDS011;6367;52.508;13.284;2022-09-09T14:37:00;1.03;;;0.93;;
12603;SDS011;6367;52.508;13.284;2022-09-09T14:39:26;2.70;;;1.10;;
12603;SDS011;6367;52.508;13.284;2022-09-09T14:41:51;1.63;;;1.00;;
12603;SDS011;6367;52.508;13.284;2022-09-09T14:44:17;2.13;;;1.30;;
12603;SDS011;6367;52.508;13.284;2022-09-09T14:46:43;1.83;;;1.30;;
12603;SDS011;6367;52.508;13.284;2022-09-09T14:49:09;2.67;;;1.27;;
12603;SDS011;6367;52.508;13.284;2022-09-09T14:51:35;3.23;;;1.70;;
12603;SDS011;6367;52.508;13.284;2022-09-09T14:54:01;2.23;;;1.73;;
12603;SDS011;6367;52.508;13.284;2022-09-09T14:56:29;2.30;;;1.67;;
12603;SDS011;6367;52.508;13.284;2022-09-09T14:58:57;3.27;;;2.10;;
12603;SDS011;6367;52.508;13.284;2022-09-09T15:01:24;3.67;;;1.97;;
12603;SDS011;6367;52.508;13.284;2022-09-09T15:03:54;2.10;;;1.47;;
12603;SDS011;6367;52.508;13.284;2022-09-09T15:06:24;3.57;;;2.23;;
12603;SDS011;6367;52.508;13.284;2022-09-09T15:08:51;3.33;;;1.83;;
12603;SDS011;6367;52.508;13.284;2022-09-09T15:11:17;4.07;;;1.73;;
12603;SDS011;6367;52.508;13.284;2022-09-09T15:13:45;2.40;;;1.47;;
12603;SDS011;6367;52.508;13.284;2022-09-09T15:16:19;2.50;;;1.30;;
12603;SDS011;6367;52.508;13.284;2022-09-09T15:18:45;1.20;;;1.10;;
12603;SDS011;6367;52.508;13.284;2022-09-09T15:21:12;2.70;;;1.40;;
12603;SDS011;6367;52.508;13.284;2022-09-09T15:23:39;2.00;;;1.37;;
12603;SDS011;6367;52.508;13.284;2022-09-09T15:26:05;2.50;;;1.23;;
12603;SDS011;6367;52.508;13.284;2022-09-09T15:28:35;2.60;;;1.40;;
12603;SDS011;6367;52.508;13.284;2022-09-09T15:31:04;1.30;;;1.20;;
12603;SDS011;6367;52.508;13.284;2022-09-09T15:33:32;1.13;;;1.00;;
12603;SDS011;6367;52.508;13.284;2022-09-09T15:35:58;1.67;;;1.13;;
12603;SDS011;6367;52.508;13.284;2022-09-09T15:38:24;1.13;;;1.00;;
12603;SDS011;6367;52.508;13.284;2022-09-09T15:40:53;1.57;;;1.30;;
12603;SDS011;6367;52.508;13.284;2022-09-09T15:43:20;1.90;;;1.03;;
12603;SDS011;6367;52.508;13.284;2022-09-09T15:45:48;1.20;;;1.10;;
12603;SDS011;6367;52.508;13.284;2022-09-09T15:48:20;2.30;;;1.30;;
12603;SDS011;6367;52.508;13.284;2022-09-09T15:51:02;2.13;;;1.10;;
12603;SDS011;6367;52.508;13.284;2022-09-09T15:53:29;3.57;;;1.50;;
12603;SDS011;6367;52.508;13.284;2022-09-09T15:55:57;2.73;;;1.10;;
12603;SDS011;6367;52.508;13.284;2022-09-09T15:58:23;2.07;;;1.20;;
12603;SDS011;6367;52.508;13.284;2022-09-09T16:00:49;2.53;;;1.60;;
12603;SDS011;6367;52.508;13.284;2022-09-09T16:03:15;1.90;;;1.20;;
12603;SDS011;6367;52.508;13.284;2022-09-09T16:05:40;3.23;;;1.33;;
12603;SDS011;6367;52.508;13.284;2022-09-09T16:08:06;1.23;;;1.07;;
12603;SDS011;6367;52.508;13.284;2022-09-09T16:10:31;1.10;;;1.00;;
12603;SDS011;6367;52.508;13.284;2022-09-09T16:12:57;1.50;;;1.10;;
12603;SDS011;6367;52.508;13.284;2022-09-09T16:15:23;2.47;;;1.40;;
12603;SDS011;6367;52.508;13.284;2022-09-09T16:17:51;1.20;;;1.10;;
12603;SDS011;6367;52.508;13.284;2022-09-09T16:20:18;1.90;;;1.20;;
12603;SDS011;6367;52.508;13.284;2022-09-09T16:22:44;2.00;;;1.27;;
12603;SDS011;6367;52.508;13.284;2022-09-09T16:25:09;1.33;;;1.20;;
12603;SDS011;6367;52.508;13.284;2022-09-09T16:27:35;2.30;;;1.33;;
12603;SDS011;6367;52.508;13.284;2022-09-09T16:30:01;1.90;;;1.63;;
12603;SDS011;6367;52.508;13.284;2022-09-09T16:32:26;2.50;;;1.90;;
12603;SDS011;6367;52.508;13.284;2022-09-09T16:34:52;2.40;;;1.77;;
12603;SDS011;6367;52.508;13.284;2022-09-09T16:37:17;2.23;;;2.03;;
12603;SDS011;6367;52.508;13.284;2022-09-09T16:39:44;2.93;;;2.00;;